Time;durP1;ratioP1;P1;durP2;ratioP2;P2;SDS_P1;SDS_P2;PMS_P1;PMS_P2;Temp;Humidity;BMP_temperature;BMP_pressure;BME280_temperature;BME280_humidity;BME280_pressure;Samples;Min_cycle;Max_cycle;Signal;HPM_P1;HPM_P2
2022/09/21 00:00:44;;;;;;;7.75;4.60;;;;;;;7.75;86.31;98960.69;5035165;28;20055;-90
2022/09/21 00:03:32;;;;;;;5.38;4.18;;;;;;;7.78;86.64;98946.47;5029199;28;20051;-90
2022/09/21 00:06:22;;;;;;;5.85;4.70;;;;;;;7.86;86.00;98956.13;5031234;28;20049;-90
2022/09/21 00:09:10;;;;;;;6.00;4.57;;;;;;;7.85;86.19;98944.84;5032358;28;20413;-90
2022/09/21 00:11:38;;;;;;;8.05;4.32;;;;;;;7.86;86.00;98949.13;5033208;28;20056;-90
2022/09/21 00:14:11;;;;;;;7.72;4.68;;;;;;;7.95;86.00;98963.00;5050681;28;20045;-90
2022/09/21 00:16:41;;;;;;;9.13;4.82;;;;;;;7.87;86.29;98945.53;5031998;28;20045;-90
2022/09/21 00:19:09;;;;;;;6.13;3.90;;;;;;;7.86;86.08;98940.47;5012448;28;20049;-90
2022/09/21 00:21:57;;;;;;;5.75;4.22;;;;;;;7.94;86.50;98943.88;5016665;28;20061;-90
2022/09/21 00:24:45;;;;;;;9.32;4.47;;;;;;;8.00;85.83;98952.88;5040944;28;20045;-90
2022/09/21 00:27:12;;;;;;;10.55;4.30;;;;;;;8.03;86.93;98948.13;5045743;28;20045;-90
2022/09/21 00:30:02;;;;;;;41.85;6.50;;;;;;;8.11;86.70;98955.16;5029606;28;20531;-90
2022/09/21 00:32:49;;;;;;;41.40;6.25;;;;;;;8.09;86.57;98966.75;5011672;28;20125;-90
2022/09/21 00:35:37;;;;;;;20.45;5.15;;;;;;;8.07;86.64;98960.88;5048728;28;20052;-90
2022/09/21 00:38:24;;;;;;;22.33;4.90;;;;;;;8.06;86.46;98962.69;5031399;28;20041;-89
2022/09/21 00:40:52;;;;;;;20.05;4.38;;;;;;;8.09;85.77;98962.34;5045110;28;20033;-89
2022/09/21 00:44:14;;;;;;;14.73;4.50;;;;;;;8.08;85.84;98958.09;5046211;28;20053;-89
2022/09/21 00:47:18;;;;;;;21.33;4.30;;;;;;;8.05;86.39;98956.63;5019280;28;20053;-89
2022/09/21 00:50:12;;;;;;;13.98;5.00;;;;;;;8.12;86.91;98969.88;5029361;28;20505;-89
2022/09/21 00:53:03;;;;;;;17.45;4.15;;;;;;;8.03;85.53;98960.38;5016907;28;20964;-89
2022/09/21 00:55:56;;;;;;;22.17;4.15;;;;;;;7.94;85.28;98966.59;5013205;28;20038;-89
2022/09/21 00:58:49;;;;;;;4.55;3.80;;;;;;;7.97;86.08;98959.22;5024173;28;20413;-89
2022/09/21 01:01:18;;;;;;;7.85;3.78;;;;;;;7.99;86.33;98961.69;5049217;28;20416;-90
2022/09/21 01:04:07;;;;;;;10.38;3.90;;;;;;;8.07;86.48;98964.31;5005803;28;20049;-89
2022/09/21 01:07:00;;;;;;;14.38;4.22;;;;;;;8.03;85.86;98965.59;5026858;28;20056;-89
2022/09/21 01:09:54;;;;;;;14.73;4.53;;;;;;;7.94;86.06;98969.19;5025208;28;20057;-89
2022/09/21 01:13:00;;;;;;;20.35;4.32;;;;;;;8.05;87.21;98974.09;5047633;28;20057;-89
2022/09/21 01:16:14;;;;;;;13.32;4.20;;;;;;;8.06;86.40;98973.13;5019091;28;20049;-89
2022/09/21 01:19:17;;;;;;;9.13;4.10;;;;;;;8.02;86.86;98969.19;5030797;28;20409;-89
2022/09/21 01:22:36;;;;;;;7.28;4.78;;;;;;;8.07;86.71;98974.75;5039671;28;20049;-89
2022/09/21 01:25:58;;;;;;;20.42;5.05;;;;;;;8.03;86.78;98963.78;5031073;28;20049;-89
2022/09/21 01:28:57;;;;;;;7.00;4.47;;;;;;;8.03;87.58;98981.28;5027226;28;20385;-89
2022/09/21 01:31:36;;;;;;;11.50;4.50;;;;;;;8.05;87.62;98981.94;5013539;28;20053;-89
2022/09/21 01:34:33;;;;;;;24.98;4.72;;;;;;;8.04;86.61;98975.09;5012052;28;20075;-89
2022/09/21 01:37:12;;;;;;;16.38;4.18;;;;;;;8.06;86.34;98980.97;5023745;28;20052;-89
2022/09/21 01:39:46;;;;;;;18.10;4.32;;;;;;;8.06;86.88;98983.56;5036693;28;20046;-85
2022/09/21 01:42:39;;;;;;;9.15;4.28;;;;;;;8.01;87.82;98973.59;5043397;28;20051;-85
2022/09/21 01:45:39;;;;;;;17.13;4.28;;;;;;;8.13;87.25;98973.28;5035780;28;20057;-85
2022/09/21 01:48:35;;;;;;;13.13;4.13;;;;;;;8.15;86.87;98974.75;5038275;28;20385;-85
2022/09/21 01:51:27;;;;;;;13.63;4.45;;;;;;;8.19;86.71;98978.69;5035035;28;20555;-84
2022/09/21 01:54:26;;;;;;;7.95;4.15;;;;;;;8.19;87.00;98977.88;5048350;28;20053;-84
2022/09/21 01:57:40;;;;;;;13.55;4.28;;;;;;;8.13;86.57;98963.66;5038718;28;20048;-84
2022/09/21 02:00:33;;;;;;;13.68;5.05;;;;;;;8.07;86.03;98976.56;5021900;28;20535;-85
2022/09/21 02:03:43;;;;;;;29.70;5.05;;;;;;;8.12;86.38;98993.38;5033639;28;20045;-85
2022/09/21 02:06:12;;;;;;;14.75;4.35;;;;;;;8.16;86.88;98988.66;5032548;28;20053;-84
2022/09/21 02:09:00;;;;;;;14.95;4.28;;;;;;;8.21;86.70;98987.16;5034728;28;20038;-84
2022/09/21 02:11:47;;;;;;;19.52;4.60;;;;;;;8.24;86.79;98986.84;5039600;28;20045;-84
2022/09/21 02:14:24;;;;;;;9.00;4.28;;;;;;;8.30;86.72;98983.59;5044378;28;20060;-84
2022/09/21 02:17:54;;;;;;;8.32;4.07;;;;;;;8.36;87.17;98990.00;5040362;28;20052;-85
2022/09/21 02:20:31;;;;;;;17.80;4.43;;;;;;;8.43;86.86;98980.50;4954605;28;20048;-84
2022/09/21 02:23:02;;;;;;;10.65;4.65;;;;;;;8.40;86.41;98982.66;5035827;28;20060;-85
2022/09/21 02:26:08;;;;;;;8.20;3.97;;;;;;;8.40;86.64;98985.28;5028993;28;20043;-85
2022/09/21 02:29:14;;;;;;;13.75;4.57;;;;;;;8.43;86.51;98984.94;5042547;28;20037;-84
2022/09/21 02:32:23;;;;;;;8.40;4.22;;;;;;;8.45;85.89;98982.97;5035195;28;20049;-85
2022/09/21 02:35:48;;;;;;;12.35;4.53;;;;;;;8.49;85.94;98989.50;5043372;28;20068;-85
2022/09/21 02:38:53;;;;;;;11.32;4.50;;;;;;;8.37;85.54;98980.34;5032922;28;20048;-85
2022/09/21 02:41:56;;;;;;;15.65;5.30;;;;;;;8.49;86.47;98987.69;5035307;28;20051;-85
2022/09/21 02:45:17;;;;;;;13.43;5.00;;;;;;;8.47;85.51;98988.84;5027942;28;20049;-85
2022/09/21 02:48:02;;;;;;;12.35;5.13;;;;;;;8.36;85.54;98976.94;5037769;28;20040;-85
2022/09/21 02:50:41;;;;;;;12.00;4.90;;;;;;;8.25;86.24;98978.03;5019158;28;20061;-85
2022/09/21 02:53:37;;;;;;;14.25;5.03;;;;;;;8.28;87.12;98982.94;5015734;28;20059;-84
2022/09/21 02:56:27;;;;;;;9.02;4.75;;;;;;;8.32;87.14;98986.03;5036785;28;20051;-85
2022/09/21 02:59:01;;;;;;;13.50;5.15;;;;;;;8.27;86.44;98985.69;5040682;28;20049;-85
2022/09/21 03:01:50;;;;;;;11.70;4.50;;;;;;;8.30;87.24;98983.59;5041697;28;20053;-86
2022/09/21 03:04:42;;;;;;;18.38;5.28;;;;;;;8.33;87.02;98985.03;5044774;28;20045;-85
2022/09/21 03:07:31;;;;;;;20.92;5.28;;;;;;;8.32;86.94;98992.06;5028901;28;20056;-85
2022/09/21 03:10:19;;;;;;;21.38;5.45;;;;;;;8.31;87.08;98990.44;5031811;28;20060;-84
2022/09/21 03:13:10;;;;;;;25.95;6.47;;;;;;;8.29;86.84;98995.03;5039408;28;20059;-84
2022/09/21 03:16:06;;;;;;;13.07;5.78;;;;;;;8.30;86.61;98998.47;5037984;28;20147;-84
2022/09/21 03:18:33;;;;;;;14.43;5.35;;;;;;;8.26;86.97;98990.13;5029366;28;20045;-84
2022/09/21 03:21:21;;;;;;;19.20;5.13;;;;;;;8.35;87.06;98987.53;5032497;28;20050;-85
2022/09/21 03:24:09;;;;;;;12.88;5.90;;;;;;;8.34;86.75;98986.72;5024948;28;20060;-85
2022/09/21 03:26:56;;;;;;;32.40;5.68;;;;;;;8.04;86.18;98996.00;5036770;28;20076;-85
2022/09/21 03:29:24;;;;;;;21.30;4.72;;;;;;;8.04;86.97;98996.00;5040966;28;20041;-85
2022/09/21 03:31:54;;;;;;;14.20;4.57;;;;;;;8.09;87.04;98987.66;5041094;28;20049;-86
2022/09/21 03:34:42;;;;;;;12.25;4.65;;;;;;;8.21;86.97;98995.00;5029135;28;20060;-85
2022/09/21 03:37:30;;;;;;;12.35;4.78;;;;;;;8.28;86.81;98998.63;5031268;28;20053;-85
2022/09/21 03:40:18;;;;;;;8.32;4.15;;;;;;;8.20;86.17;98992.56;5022537;28;20041;-85
2022/09/21 03:42:45;;;;;;;12.40;4.18;;;;;;;8.16;86.40;98989.47;5030066;28;20051;-85
2022/09/21 03:45:13;;;;;;;12.45;4.10;;;;;;;8.23;86.45;98998.28;5032417;28;20045;-85
2022/09/21 03:47:41;;;;;;;9.57;3.88;;;;;;;8.30;86.82;99001.06;5030961;28;20045;-85
2022/09/21 03:50:10;;;;;;;13.40;4.10;;;;;;;8.31;86.69;98998.28;5023529;28;20052;-85
2022/09/21 03:52:38;;;;;;;6.70;4.30;;;;;;;8.29;86.30;98995.03;5024762;28;20041;-84
2022/09/21 03:55:26;;;;;;;14.38;3.45;;;;;;;8.30;85.96;98995.84;5016742;28;20048;-85
2022/09/21 03:57:53;;;;;;;8.48;4.03;;;;;;;8.31;85.25;99000.09;5040734;28;20033;-85
2022/09/21 04:00:41;;;;;;;10.02;3.60;;;;;;;8.25;85.33;99008.56;5036214;28;20674;-85
2022/09/21 04:03:29;;;;;;;25.15;4.72;;;;;;;8.21;85.44;99008.06;5034720;28;20052;-85
2022/09/21 04:06:17;;;;;;;27.25;4.10;;;;;;;8.17;84.81;99014.63;5029520;28;20055;-85
2022/09/21 04:09:05;;;;;;;8.15;3.95;;;;;;;8.17;85.16;99017.22;5029533;28;20038;-85
2022/09/21 04:11:53;;;;;;;5.97;3.60;;;;;;;8.13;85.91;99015.09;5028263;28;20056;-85
2022/09/21 04:14:40;;;;;;;15.02;4.07;;;;;;;8.17;86.15;99026.88;5031865;28;20049;-85
2022/09/21 04:17:08;;;;;;;13.23;4.30;;;;;;;8.07;85.87;99023.59;5033100;28;20056;-86
2022/09/21 04:19:35;;;;;;;26.65;4.35;;;;;;;8.12;86.18;99022.13;5044300;28;20512;-85
2022/09/21 04:22:03;;;;;;;9.98;4.22;;;;;;;8.09;87.10;99014.59;5029830;28;20380;-85
2022/09/21 04:24:30;;;;;;;8.23;4.07;;;;;;;8.07;86.52;99015.75;5035979;28;20056;-85
2022/09/21 04:26:58;;;;;;;22.23;4.20;;;;;;;8.02;85.28;99027.47;5037830;28;20523;-85
2022/09/21 04:29:25;;;;;;;18.30;4.28;;;;;;;7.97;85.23;99026.31;5028024;28;20049;-85
2022/09/21 04:31:53;;;;;;;18.45;4.10;;;;;;;7.95;85.49;99023.06;5035312;28;20053;-85
2022/09/21 04:34:41;;;;;;;29.73;4.07;;;;;;;7.94;85.46;99034.50;5023205;28;20053;-85
2022/09/21 04:37:29;;;;;;;30.20;4.07;;;;;;;7.83;83.65;99037.41;5034838;28;20057;-85
2022/09/21 04:39:58;;;;;;;47.92;4.90;;;;;;;7.54;84.04;99045.63;5018527;28;20499;-86
2022/09/21 04:42:26;;;;;;;30.13;4.07;;;;;;;7.37;85.49;99044.72;5018859;28;20049;-85
2022/09/21 04:44:55;;;;;;;13.57;4.00;;;;;;;7.46;86.50;99043.78;5030457;28;20051;-85
2022/09/21 04:47:24;;;;;;;13.27;3.67;;;;;;;7.61;86.25;99055.25;5040060;28;20049;-85
2022/09/21 04:50:11;;;;;;;6.05;3.63;;;;;;;7.62;86.32;99043.88;5032007;28;20053;-85
2022/09/21 04:52:39;;;;;;;8.25;3.88;;;;;;;7.76;86.16;99052.88;5032133;28;20049;-85
2022/09/21 04:55:07;;;;;;;16.45;3.80;;;;;;;7.74;85.13;99054.84;5012335;28;20057;-86
2022/09/21 04:57:35;;;;;;;16.63;3.63;;;;;;;7.72;85.57;99057.59;5031897;28;20436;-85
2022/09/21 05:00:23;;;;;;;23.23;3.45;;;;;;;7.73;86.00;99045.34;5030602;28;20440;-85
2022/09/21 05:03:10;;;;;;;8.65;3.15;;;;;;;7.71;85.95;99032.47;5042682;28;20041;-85
2022/09/21 05:05:38;;;;;;;10.02;3.50;;;;;;;7.85;85.53;99057.16;5049168;28;20051;-85
2022/09/21 05:08:05;;;;;;;16.90;4.10;;;;;;;7.76;85.82;99040.66;5034269;28;20055;-85
2022/09/21 05:10:36;;;;;;;22.83;3.47;;;;;;;7.84;85.82;99050.28;5034345;28;20369;-85
2022/09/21 05:13:04;;;;;;;11.32;3.22;;;;;;;7.89;85.78;99065.50;5039645;28;20041;-85
2022/09/21 05:15:31;;;;;;;5.97;3.28;;;;;;;7.76;85.44;99053.72;5033023;28;20054;-85
2022/09/21 05:17:59;;;;;;;27.67;3.70;;;;;;;7.68;84.52;99056.28;5026276;28;20060;-85
2022/09/21 05:20:59;;;;;;;13.95;3.17;;;;;;;7.72;85.31;99065.44;5039404;28;20049;-85
2022/09/21 05:23:46;;;;;;;11.68;2.60;;;;;;;7.69;85.42;99064.94;5039609;28;20044;-85
2022/09/21 05:26:27;;;;;;;8.70;2.95;;;;;;;7.68;84.39;99064.13;5023147;28;20026;-85
2022/09/21 05:29:15;;;;;;;16.33;2.92;;;;;;;7.73;84.92;99074.91;5037532;28;20046;-86
2022/09/21 05:32:30;;;;;;;4.88;2.58;;;;;;;7.80;83.98;99082.94;5011566;28;20049;-85
2022/09/21 05:35:44;;;;;;;10.80;2.40;;;;;;;7.84;84.12;99080.81;5055312;28;20060;-85
2022/09/21 05:38:32;;;;;;;7.45;2.60;;;;;;;7.78;84.00;99077.03;5024521;28;20046;-85
2022/09/21 05:41:00;;;;;;;12.45;2.83;;;;;;;7.88;83.74;99089.97;5028857;28;20042;-85
2022/09/21 05:43:48;;;;;;;9.73;2.88;;;;;;;7.86;84.56;99087.53;5029557;28;20048;-85
2022/09/21 05:47:06;;;;;;;6.38;2.85;;;;;;;7.86;84.30;99086.72;5030011;28;20397;-85
2022/09/21 05:50:18;;;;;;;4.93;2.40;;;;;;;7.69;83.63;99091.88;5008904;28;20050;-85
2022/09/21 05:53:19;;;;;;;5.95;2.72;;;;;;;7.63;84.21;99086.47;5028885;28;20049;-85
2022/09/21 05:56:27;;;;;;;25.75;3.58;;;;;;;7.45;84.55;99092.56;5020555;28;20064;-84
2022/09/21 05:59:39;;;;;;;14.25;2.92;;;;;;;7.50;86.04;99084.28;5024676;28;20683;-85
2022/09/21 06:02:10;;;;;;;7.55;2.70;;;;;;;7.60;84.74;99091.97;5029734;28;20385;-84
2022/09/21 06:05:01;;;;;;;13.25;3.20;;;;;;;7.57;84.19;99087.91;5026974;28;20068;-84
2022/09/21 06:07:28;;;;;;;;;;;;;;;7.72;84.57;99095.94;5038635;28;20041;-86
2022/09/21 06:12:26;;;;;;;16.10;2.65;;;;;;;7.74;85.02;99089.63;4983199;28;21492;-86
2022/09/21 06:14:55;;;;;;;10.55;2.70;;;;;;;7.92;84.44;99101.75;5028734;28;20049;-86
2022/09/21 06:17:26;;;;;;;7.03;2.53;;;;;;;7.93;83.64;99104.22;5040536;28;20049;-85
2022/09/21 06:19:53;;;;;;;10.50;2.38;;;;;;;7.75;82.01;99090.44;5044250;28;20521;-86
2022/09/21 06:22:21;;;;;;;12.35;2.50;;;;;;;7.82;83.18;99101.88;4989663;28;20504;-86
2022/09/21 06:24:47;;;;;;;11.95;2.80;;;;;;;7.97;83.38;99102.09;5017121;28;20053;-85
2022/09/21 06:27:14;;;;;;;6.82;2.67;;;;;;;8.08;83.47;99096.56;5032810;28;20436;-86
2022/09/21 06:29:41;;;;;;;15.73;3.53;;;;;;;8.07;82.34;99109.81;4925505;28;3022213;-85
2022/09/21 06:32:08;;;;;;;17.80;3.33;;;;;;;8.13;83.08;99109.97;5028488;28;20037;-85
2022/09/21 06:35:31;;;;;;;12.45;3.47;;;;;;;8.17;83.35;99098.25;5040004;28;20123;-85
2022/09/21 06:38:06;;;;;;;10.95;3.08;;;;;;;8.28;83.00;99110.19;5031270;28;20050;-85
2022/09/21 06:40:36;;;;;;;13.35;3.50;;;;;;;8.35;83.49;99105.16;5060204;28;20591;-85
2022/09/21 06:43:04;;;;;;;21.48;4.00;;;;;;;8.41;82.29;99112.38;5047774;28;20119;-85
2022/09/21 06:45:31;;;;;;;98.10;7.20;;;;;;;8.09;79.89;99110.44;5039795;28;20731;-86
2022/09/21 06:47:58;;;;;;;66.35;5.88;;;;;;;7.93;82.26;99108.63;5024355;28;20041;-86
2022/09/21 06:50:25;;;;;;;50.30;4.70;;;;;;;7.79;82.36;99108.22;4939773;28;20408;-85
2022/09/21 06:52:51;;;;;;;12.65;4.05;;;;;;;7.98;83.74;99125.47;4985036;28;20052;-86
2022/09/21 06:55:19;;;;;;;9.07;4.15;;;;;;;7.89;83.68;99112.50;4978577;28;20574;-85
2022/09/21 06:57:46;;;;;;;11.23;4.13;;;;;;;8.07;83.86;99121.06;4978803;28;20058;-87
2022/09/21 07:00:13;;;;;;;20.17;4.57;;;;;;;8.05;83.71;99118.63;5009319;28;20053;-85
2022/09/21 07:02:47;;;;;;;35.38;5.22;;;;;;;8.01;82.01;99116.47;4993068;28;20413;-87
2022/09/21 07:05:15;;;;;;;30.55;4.75;;;;;;;8.02;82.47;99124.16;5000863;28;20060;-87
2022/09/21 07:07:42;;;;;;;21.98;6.30;;;;;;;8.06;82.42;99129.88;4996712;28;20055;-87
2022/09/21 07:10:11;;;;;;;40.03;5.32;;;;;;;7.99;82.25;99131.50;5004198;28;20056;-85
2022/09/21 07:12:45;;;;;;;17.13;3.92;;;;;;;8.08;82.99;99130.53;5020365;28;20065;-85
2022/09/21 07:15:12;;;;;;;6.68;3.88;;;;;;;8.07;83.75;99136.75;4974472;28;20048;-85
2022/09/21 07:17:38;;;;;;;12.50;3.88;;;;;;;8.20;84.68;99120.63;5007961;28;20053;-84
2022/09/21 07:20:18;;;;;;;10.98;4.10;;;;;;;8.39;84.66;99125.59;5004628;28;20045;-85
2022/09/21 07:22:45;;;;;;;7.07;4.13;;;;;;;8.48;84.93;99132.47;5008934;28;20053;-85
2022/09/21 07:26:40;;;;;;;15.73;4.47;;;;;;;8.48;83.93;99129.06;5043644;28;20515;-85
2022/09/21 07:29:07;;;;;;;7.63;4.03;;;;;;;8.45;83.63;99129.34;5011785;28;327824;-84
2022/09/21 07:31:52;;;;;;;9.93;4.03;;;;;;;8.52;83.99;99133.81;5011629;28;595410;-85
2022/09/21 07:34:19;;;;;;;15.77;3.90;;;;;;;8.75;84.55;99135.78;4998456;28;20033;-84
2022/09/21 07:36:48;;;;;;;16.25;4.00;;;;;;;8.85;82.78;99129.41;4969912;28;854903;-84
2022/09/21 07:40:18;;;;;;;7.68;3.88;;;;;;;8.99;82.96;99140.19;5065924;27;20426;-85
2022/09/21 07:44:25;;;;;;;8.40;3.92;;;;;;;9.21;83.05;99131.69;5016833;28;240773;-84
2022/09/21 07:46:52;;;;;;;6.00;4.50;;;;;;;9.38;82.07;99132.47;5001071;28;20038;-85
2022/09/21 07:49:19;;;;;;;11.90;4.80;;;;;;;9.25;80.27;99114.69;4997769;28;20056;-85
2022/09/21 07:51:45;;;;;;;7.35;5.10;;;;;;;9.09;81.57;99122.53;4999567;28;20043;-85
2022/09/21 07:54:14;;;;;;;43.33;5.85;;;;;;;8.70;81.03;99133.66;4965809;28;20116;-85
2022/09/21 08:01:09;;;;;;;8.30;4.22;;;;;;;8.99;82.58;99127.13;5034131;28;22882;-86
2022/09/21 08:03:35;;;;;;;24.33;6.50;;;;;;;8.71;82.00;99119.59;5043207;28;20058;-86
2022/09/21 08:06:03;;;;;;;13.35;5.13;;;;;;;8.85;83.14;99125.97;5034374;28;20532;-85
2022/09/21 08:08:29;;;;;;;16.33;5.68;;;;;;;9.04;82.51;99122.22;5032567;28;20043;-85
2022/09/21 08:11:02;;;;;;;9.15;5.32;;;;;;;9.08;82.39;99120.91;5020401;28;20038;-87
2022/09/21 08:13:29;;;;;;;6.00;4.68;;;;;;;9.34;82.18;99123.31;5034424;28;20462;-88
2022/09/21 08:16:01;;;;;;;6.60;4.95;;;;;;;9.69;82.29;99131.75;5031714;28;20049;-89
2022/09/21 08:18:31;;;;;;;7.45;5.05;;;;;;;9.63;81.58;99135.88;5041106;28;20041;-87
2022/09/21 08:20:59;;;;;;;10.15;4.65;;;;;;;9.55;81.16;99125.41;5030156;28;20049;-87
2022/09/21 08:23:27;;;;;;;19.67;5.68;;;;;;;9.51;79.82;99131.97;5037925;28;20542;-88
2022/09/21 08:26:05;;;;;;;15.38;5.20;;;;;;;9.26;80.71;99132.00;5043528;28;20044;-88
2022/09/21 08:28:33;;;;;;;12.52;5.32;;;;;;;9.30;82.03;99130.69;5045138;28;20037;-87
2022/09/21 08:31:03;;;;;;;11.40;5.60;;;;;;;9.39;82.30;99134.94;5015894;28;20045;-88
2022/09/21 08:33:31;;;;;;;7.18;5.50;;;;;;;9.61;81.18;99143.06;5044924;28;20501;-88
2022/09/21 08:36:00;;;;;;;6.10;5.18;;;;;;;9.70;81.73;99142.06;5026792;28;20530;-89
2022/09/21 08:40:34;;;;;;;8.63;5.97;;;;;;;9.82;81.01;99139.91;5041274;27;20767;-89
2022/09/21 08:43:10;;;;;;;13.43;6.72;;;;;;;9.86;79.68;99135.97;5058807;28;20444;-85
2022/09/21 08:45:42;;;;;;;10.23;5.80;;;;;;;9.92;81.65;99119.56;4185413;28;16854197;-87
2022/09/21 08:49:02;;;;;;;7.07;5.25;;;;;;;10.29;80.70;99124.16;5075671;27;20477;-88
2022/09/21 08:51:56;;;;;;;9.90;5.70;;;;;;;10.50;79.77;99134.03;4978198;28;1725899;-87
2022/09/21 08:54:56;;;;;;;8.43;6.07;;;;;;;10.78;80.03;99144.81;5000427;27;852387;-87
2022/09/21 08:57:30;;;;;;;10.52;8.02;;;;;;;10.93;79.02;99137.81;5020330;28;20045;-88
2022/09/21 09:00:00;;;;;;;9.20;5.93;;;;;;;11.04;77.89;99130.53;5039981;28;20096;-87
2022/09/21 09:03:03;;;;;;;8.30;5.95;;;;;;;11.01;77.41;99146.63;5022245;28;20050;-88
2022/09/21 09:05:54;;;;;;;8.52;5.90;;;;;;;11.20;77.91;99146.13;5022976;28;20208;-87
2022/09/21 09:08:38;;;;;;;8.38;6.18;;;;;;;10.75;77.80;99124.19;5020172;28;20053;-87
2022/09/21 09:11:33;;;;;;;9.15;6.40;;;;;;;10.52;77.80;99131.25;4990899;28;20070;-88
2022/09/21 09:14:21;;;;;;;8.48;6.45;;;;;;;10.53;79.59;99136.31;4976550;28;20132;-88
2022/09/21 09:17:08;;;;;;;9.00;7.47;;;;;;;10.58;77.62;99143.66;5008887;28;20548;-88
2022/09/21 09:21:43;;;;;;;12.43;7.65;;;;;;;10.77;79.13;99147.63;4887477;27;3470045;-88
2022/09/21 09:24:50;;;;;;;10.48;7.00;;;;;;;10.65;77.97;99139.34;5002473;28;20044;-88
2022/09/21 09:27:36;;;;;;;12.02;7.25;;;;;;;10.87;78.69;99149.03;5006545;28;20042;-88
2022/09/21 09:30:25;;;;;;;11.25;7.18;;;;;;;11.03;77.42;99128.88;4994195;28;20045;-86
2022/09/21 09:33:05;;;;;;;9.43;6.85;;;;;;;10.97;76.70;99130.41;5006349;28;20046;-88
2022/09/21 09:36:15;;;;;;;9.90;6.93;;;;;;;11.45;78.72;99139.63;5004072;28;20522;-90
2022/09/21 09:39:11;;;;;;;9.95;7.53;;;;;;;11.23;75.77;99130.03;5008244;28;20056;-88
2022/09/21 09:42:12;;;;;;;10.38;8.02;;;;;;;11.21;75.01;99139.88;4995031;28;20034;-89
2022/09/21 09:45:50;;;;;;;10.52;7.53;;;;;;;11.23;76.63;99138.72;3000755;28;26210163;-89
2022/09/21 09:48:47;;;;;;;9.00;7.35;;;;;;;11.45;75.77;99133.56;2341091;28;72825360;-90
2022/09/21 09:51:25;;;;;;;14.15;7.97;;;;;;;11.46;77.02;99129.97;4927934;28;20092;-91
2022/09/21 09:55:46;;;;;;;;;;;;;;;;;;;;;
2022/09/21 09:58:22;;;;;;;10.13;7.90;;;;;;;11.00;75.88;99103.81;5151332;27;20039;-94
2022/09/21 10:00:56;;;;;;;11.02;7.30;;;;;;;11.32;76.36;99115.00;5134297;27;20487;-95
2022/09/21 10:03:30;;;;;;;9.68;7.15;;;;;;;11.45;77.61;99097.59;5111975;28;20044;-94
2022/09/21 10:05:57;;;;;;;8.35;6.85;;;;;;;11.45;76.14;99094.97;5107113;28;20032;-95
2022/09/21 10:08:45;;;;;;;9.25;7.30;;;;;;;11.98;75.82;99113.31;5090417;28;20044;-94
2022/09/21 10:11:18;;;;;;;8.63;6.78;;;;;;;12.10;75.34;99103.94;5075592;28;20062;-95
2022/09/21 10:13:53;;;;;;;8.10;6.53;;;;;;;12.38;75.19;99095.34;5070801;28;20041;-95
2022/09/21 10:16:22;;;;;;;8.88;6.38;;;;;;;12.34;75.08;99089.63;5071226;28;20105;-93
2022/09/21 10:19:00;;;;;;;6.53;5.72;;;;;;;12.40;75.14;99111.75;5070622;28;20039;-94
2022/09/21 10:21:39;;;;;;;8.27;6.25;;;;;;;12.11;74.83;99107.38;5086357;28;20040;-94
2022/09/21 10:24:55;;;;;;;;;;;;;;;;;;;;;
2022/09/21 10:27:33;;;;;;;8.48;5.95;;;;;;;12.13;73.75;99095.69;4667004;28;16653841;-93
2022/09/21 10:31:11;;;;;;;7.63;5.47;;;;;;;12.36;74.58;99092.91;5013015;27;1794344;-89
2022/09/21 10:34:03;;;;;;;6.65;5.82;;;;;;;12.48;74.47;99087.97;5026923;28;20048;-91
2022/09/21 10:36:45;;;;;;;6.03;5.43;;;;;;;12.61;75.02;99089.91;4956035;28;20056;-91
2022/09/21 10:41:41;;;;;;;7.53;5.90;;;;;;;12.61;74.21;99089.91;5030709;27;20833;-90
2022/09/21 10:44:34;;;;;;;8.85;6.15;;;;;;;12.69;75.48;99093.22;4970362;28;20078;-91
2022/09/21 10:47:24;;;;;;;7.72;5.60;;;;;;;12.78;75.16;99088.66;4952880;28;20084;-91
2022/09/21 10:50:37;;;;;;;6.15;4.95;;;;;;;12.90;71.42;99075.81;4989102;28;20052;-91
2022/09/21 10:55:24;;;;;;;6.28;4.65;;;;;;;13.24;74.40;99082.94;5079709;27;20067;-91
2022/09/21 10:57:56;;;;;;;7.20;5.10;;;;;;;13.49;72.27;99083.31;5066854;28;20040;-91
2022/09/21 11:00:45;;;;;;;7.30;5.80;;;;;;;13.42;72.03;99085.91;5059470;28;20212;-90
2022/09/21 11:03:45;;;;;;;;;;;;;;;;;;;;;
2022/09/21 11:06:36;;;;;;;9.00;6.20;;;;;;;13.26;72.40;99081.78;5051080;28;20400;-91
2022/09/21 11:09:31;;;;;;;7.40;5.47;;;;;;;13.43;71.70;99081.44;5051866;28;20041;-91
2022/09/21 11:12:48;;;;;;;7.75;5.57;;;;;;;13.59;69.02;99081.94;5050978;28;20068;-89
2022/09/21 11:15:48;;;;;;;10.02;6.40;;;;;;;13.73;68.08;99066.19;5056369;28;20049;-89
2022/09/21 11:18:31;;;;;;;8.23;6.03;;;;;;;13.73;65.12;99074.91;5064876;28;20051;-90
2022/09/21 11:21:39;;;;;;;7.80;5.10;;;;;;;13.89;65.66;99077.22;5066139;28;20036;-90
2022/09/21 11:24:57;;;;;;;6.53;5.07;;;;;;;13.83;64.66;99069.28;5048276;28;20052;-88
2022/09/21 11:27:43;;;;;;;6.45;4.93;;;;;;;13.95;63.44;99070.34;5055434;28;20053;-89
2022/09/21 11:30:16;;;;;;;6.90;5.38;;;;;;;14.15;63.25;99075.69;5065618;28;20136;-89
2022/09/21 11:33:02;;;;;;;4.95;3.90;;;;;;;14.12;62.38;99061.06;5063783;28;20148;-88
2022/09/21 11:35:47;;;;;;;5.88;4.05;;;;;;;14.45;60.54;99061.16;5061265;28;20431;-88
2022/09/21 11:39:09;;;;;;;5.15;3.80;;;;;;;14.71;59.54;99068.31;5054549;28;20056;-89
2022/09/21 11:41:44;;;;;;;4.35;3.53;;;;;;;14.62;58.46;99066.88;5063299;28;20080;-91
2022/09/21 11:44:21;;;;;;;2.67;2.47;;;;;;;14.67;57.44;99059.16;5062974;28;20065;-91
2022/09/21 11:47:25;;;;;;;3.72;2.85;;;;;;;14.69;55.00;99057.16;5049824;28;20484;-92
2022/09/21 11:50:07;;;;;;;2.78;2.38;;;;;;;14.85;57.57;99055.94;5059636;28;20628;-88
2022/09/21 11:53:28;;;;;;;2.92;2.40;;;;;;;14.74;56.36;99032.75;5056477;28;20076;-89
2022/09/21 11:57:00;;;;;;;3.22;1.85;;;;;;;14.86;55.61;99036.41;5048392;28;20037;-89
2022/09/21 12:00:19;;;;;;;2.58;1.90;;;;;;;14.93;56.92;99031.13;5068211;28;20040;-88
2022/09/21 12:03:10;;;;;;;;;;;;;;;15.15;58.53;99037.81;5061584;28;20071;-88
2022/09/21 12:05:42;;;;;;;1.92;1.75;;;;;;;15.33;58.11;99037.16;5054168;28;19956;-89
2022/09/21 12:08:50;;;;;;;2.08;1.65;;;;;;;15.30;56.40;99042.06;5039444;28;20075;-88
2022/09/21 12:11:42;;;;;;;2.22;1.60;;;;;;;15.30;55.47;99027.03;5002676;28;70593;-88
2022/09/21 12:17:12;;;;;;;1.98;1.70;;;;;;;15.42;52.95;99029.84;4927095;28;20391;-88
2022/09/21 12:20:08;;;;;;;1.70;1.58;;;;;;;15.55;54.88;99024.50;4962685;28;20041;-88
2022/09/21 12:22:44;;;;;;;2.33;1.50;;;;;;;15.37;53.13;99013.78;4958424;28;20055;-88
2022/09/21 12:25:28;;;;;;;2.05;1.63;;;;;;;15.44;54.02;99011.94;4978290;28;20510;-88
2022/09/21 12:28:17;;;;;;;1.25;1.17;;;;;;;15.56;53.60;99004.16;4996932;28;20055;-87
2022/09/21 12:30:53;;;;;;;1.42;1.33;;;;;;;15.73;53.49;99015.94;4987714;28;20046;-88
2022/09/21 12:33:41;;;;;;;1.60;1.30;;;;;;;15.67;54.81;98993.78;4986299;28;20066;-87
2022/09/21 12:36:13;;;;;;;1.80;1.30;;;;;;;15.82;54.50;99009.34;4985236;28;20116;-89
2022/09/21 12:38:53;;;;;;;2.17;1.30;;;;;;;15.85;51.81;98998.38;4986112;28;20125;-87
2022/09/21 12:41:33;;;;;;;2.28;1.40;;;;;;;16.01;51.72;99004.97;4984774;28;20047;-87
2022/09/21 12:44:15;;;;;;;1.67;1.38;;;;;;;16.05;52.49;99003.53;4984589;28;20043;-87
2022/09/21 12:47:08;;;;;;;1.85;1.40;;;;;;;16.17;50.15;98991.25;4985029;28;20109;-87
2022/09/21 12:49:46;;;;;;;1.40;1.25;;;;;;;16.13;49.62;98987.41;4982208;28;20504;-87
2022/09/21 12:52:22;;;;;;;1.77;1.10;;;;;;;16.00;48.20;98982.19;5001608;28;20062;-87
2022/09/21 12:55:37;;;;;;;1.30;1.20;;;;;;;16.31;52.00;99006.03;4977594;28;20039;-87
2022/09/21 12:58:13;;;;;;;1.73;1.25;;;;;;;16.32;50.15;98993.59;4985346;28;20493;-86
2022/09/21 13:01:25;;;;;;;1.58;1.20;;;;;;;16.36;53.06;98980.75;4999067;28;20038;-87
2022/09/21 13:04:11;;;;;;;4.20;1.45;;;;;;;16.47;51.62;98991.44;4986113;28;20046;-88
2022/09/21 13:07:18;;;;;;;1.50;1.38;;;;;;;16.23;50.54;98974.50;4988568;28;20510;-87
2022/09/21 13:09:48;;;;;;;1.55;1.45;;;;;;;16.54;54.73;98984.25;4988075;28;20050;-88
2022/09/21 13:12:32;;;;;;;1.30;1.20;;;;;;;16.53;47.11;98980.00;4982071;28;20121;-88
2022/09/21 13:15:24;;;;;;;3.05;1.42;;;;;;;16.40;49.30;98979.28;4982816;28;20078;-87
2022/09/21 13:18:17;;;;;;;1.48;1.38;;;;;;;16.47;50.25;98980.03;4977171;28;20495;-85
2022/09/21 13:20:45;;;;;;;1.58;1.40;;;;;;;16.54;48.46;98978.16;5001096;28;20049;-86
2022/09/21 13:23:39;;;;;;;1.40;1.15;;;;;;;16.79;48.95;98986.94;5000898;28;20514;-86